Federal Polaris — V7VQ3 — position and weather

sailwx.info

Track history (hours):
 
Tides and Currents Weather Stations Pressure Air Temp Water Temp Dewpoint Dewpoint Depression Visibility Wind Speed Wind Dir Waves Ship Positions

Federal Polaris

Last reported at 2017-Mar-01 08:08 UTC. Time now 2017-Mar-27 14:38 UTC.
Position N 33°14' E 131°60'.
Warning: this ship's position is 26 days out of date.

Length 182 m; draft 6.4 m.

Type: Ship. MMSI: 538004185.

Date/timePositionNaut miles runAvg speedWind from/ knotsBaromVisibWave heightAir tempDewpointWater temp
2017-Mar-01 08:08N 33°14' E 131°60'2911.0
2017-Mar-01 05:27N 33°39' E 132°19'1213.3
2017-Mar-01 04:32N 33°47' E 132°30'1010.6
2017-Mar-01 03:33N 33°57' E 132°34'11 9.7
2017-Mar-01 02:24N 34°05' E 132°25'12 5.7
2017-Mar-01 00:22N 34°15' E 132°30'  
2017-Feb-26 06:18N 34°15' E 132°31'10 4.9
2017-Feb-26 04:19N 34°07' E 132°23'1211.7
2017-Feb-26 03:19N 33°60' E 132°35'810.2
2017-Feb-26 02:33N 33°53' E 132°32'1413.3
2017-Feb-26 01:32N 33°42' E 132°21'3510.7
2017-Feb-25 22:15N 33°09' E 132°07'  
Track history (hours):
 
Tides and Currents Weather Stations Pressure Air Temp Water Temp Dewpoint Dewpoint Depression Visibility Wind Speed Wind Dir Waves Ship Positions

Federal Polaris

Last reported at 2017-Mar-01 08:08 UTC. Time now 2017-Mar-27 14:38 UTC.
Position N 33°14' E 131°60'.
Warning: this ship's position is 26 days out of date.

Length 182 m; draft 6.4 m.

Type: Ship. MMSI: 538004185.

Date/timePositionNaut miles runAvg speedWind from/ knotsBaromVisibWave heightAir tempDewpointWater temp
2017-Mar-01 08:08N 33°14' E 131°60'2911.0
2017-Mar-01 05:27N 33°39' E 132°19'1213.3
2017-Mar-01 04:32N 33°47' E 132°30'1010.6
2017-Mar-01 03:33N 33°57' E 132°34'11 9.7
2017-Mar-01 02:24N 34°05' E 132°25'12 5.7
2017-Mar-01 00:22N 34°15' E 132°30'  
2017-Feb-26 06:18N 34°15' E 132°31'10 4.9
2017-Feb-26 04:19N 34°07' E 132°23'1211.7
2017-Feb-26 03:19N 33°60' E 132°35'810.2
2017-Feb-26 02:33N 33°53' E 132°32'1413.3
2017-Feb-26 01:32N 33°42' E 132°21'3510.7
2017-Feb-25 22:15N 33°09' E 132°07'  

Dump ship's entire track history